サンフアン の空港の天気 - METARとTAF

ルイス・ムニョス・マリン国際空港 ( TJSJ / SJU ) - プエルトリコ サンフアン
飛行場実況気象(Metar)
観測時間02/17 18:56 AST (02/17 22:56 UTC)
風向・風速東 7m/s
視程10km以上
天気現象
少しの雲 雲底高度 980m
気温25.6℃
湿度82%
気圧1018hPa
METARTJSJ 172256Z 09013KT 10SM FEW032 26/22 A3007 RMK AO2 SLP180 T02560222
過去の天気等 Google飛行場航空写真 Wunderground天気予報

過去48時間のMETAR

飛行場予報(TAF)
発表時間: 2/17 13:37 AST (2/17 17:37 UTC)
予報対象時間: 17日14時 AST ~ 18日14時 AST
風向・風速東北東 8m/s
視程10km以上
天気現象周辺でしゅう雨
全天の4割程度の雲 雲底高度 910m
全天の4割程度の雲 雲底高度 1830m
17日18時 AST から
風向・風速東 3m/s
視程10km以上
少しの雲 雲底高度 1830m
18日4時 AST から
風向・風速南東 2m/s
視程10km以上
天気現象周辺でしゅう雨
少しの雲 雲底高度 670m
全天の4割程度の雲 雲底高度 1070m
18日9時 AST から
風向・風速東北東 8m/s
視程10km以上
少しの雲 雲底高度 1070m
TAF COR TJSJ 171737Z 1718/1818 06015KT P6SM VCSH SCT030 SCT060
FM172230 10005KT P6SM FEW060
FM180800 13003KT P6SM VCSH FEW022 SCT035
FM181350 07016KT P6SM FEW035